Ashuelot River @ West Swanzey, Nh

Ashuelot River at Swanzey
 Total Drainage Area: 316 sq. miles 
 Drainage Area Controlled by Corps Dams: 147 sq. miles (47%) 
 Warning Flow/Stage: 3,700 cfs / 10.0 feet 
 Flood Flow/Stage: 5,700 cfs / 11.0 feet 
Date Time
(Eastern)
Stage
(ft)
Flow
(cfs)
CSM
(cfs / sq. mi.)
Water Temp.
(F)
Jan-31 02:45 pm 7.38 807 2.6 1.5
Jan-31 01:45 pm 7.39 814 2.6 1.5
Jan-31 12:45 pm 7.38 807 2.6 1.5
Jan-31 11:45 am 7.40 821 2.6 1.5
Jan-31 10:45 am 7.40 821 2.6 1.5
Jan-31 09:45 am 7.40 821 2.6 1.4
Jan-31 08:45 am 7.40 821 2.6 1.4
Jan-31 07:45 am 7.39 814 2.6 1.4
Jan-31 06:45 am 7.39 814 2.6 1.5
Jan-31 05:45 am 7.39 814 2.6 1.6
Jan-31 04:45 am 7.39 814 2.6 1.6
Jan-31 03:45 am 7.41 829 2.6 1.6
Jan-31 02:45 am 7.39 814 2.6 1.7
Jan-31 01:45 am 7.41 829 2.6 1.7
Jan-31 12:45 am 7.40 821 2.6 1.7
Jan-30 11:45 pm 7.42 837 2.7 1.8
Jan-30 10:45 pm 7.42 837 2.7 1.8
Jan-30 09:45 pm 7.42 837 2.7 1.8
Jan-30 08:45 pm 7.42 837 2.7 1.8
Jan-30 07:45 pm 7.42 837 2.7 1.7
Jan-30 06:45 pm 7.41 829 2.6 1.7
Jan-30 05:45 pm 7.44 852 2.7 1.6
Jan-30 04:45 pm 7.44 852 2.7 1.5
Jan-30 03:45 pm 7.44 852 2.7 1.5
Jan-30 02:45 pm 7.45 860 2.7 1.4
Report Generated January 31, 2023 03:14 pm